createdAt,value
2019-01-05T00:09:12.993Z,3.90
2019-01-05T00:12:01.181Z,3.89
2019-01-05T00:15:10.132Z,3.92
2019-01-05T01:06:55.513Z,4.10
2019-01-05T01:09:43.954Z,4.13
2019-01-05T01:18:05.949Z,4.15
2019-01-05T01:34:40.419Z,4.22
2019-01-05T01:37:28.671Z,4.23
2019-01-05T01:43:20.430Z,4.23
2019-01-05T01:46:29.054Z,4.24
2019-01-05T02:00:34.121Z,4.21
2019-01-05T02:38:02.349Z,4.28
2019-01-05T02:41:28.518Z,4.29
2019-01-05T02:44:55.002Z,4.28
2019-01-05T02:48:21.518Z,4.26
2019-01-05T02:51:47.022Z,4.27
2019-01-05T02:55:13.235Z,4.26
2019-01-05T02:58:39.424Z,4.26
2019-01-05T03:02:08.661Z,4.27
2019-01-05T03:05:34.891Z,4.29
2019-01-05T03:09:01.340Z,4.32
2019-01-05T03:12:27.805Z,4.32
2019-01-05T03:15:55.090Z,4.32
2019-01-05T03:19:21.281Z,4.33
2019-01-05T03:22:47.464Z,4.36
2019-01-05T03:26:13.916Z,4.38
2019-01-05T03:29:40.504Z,4.42
2019-01-05T03:33:06.942Z,4.43
2019-01-05T03:39:56.778Z,4.46
2019-01-05T03:43:23.265Z,4.46
2019-01-05T03:46:49.759Z,4.46
2019-01-05T03:50:16.249Z,4.46
2019-01-05T03:53:42.449Z,4.47
2019-01-05T03:57:08.690Z,4.49
2019-01-05T04:00:34.879Z,4.51
2019-01-05T04:04:01.112Z,4.52
2019-01-05T04:07:19.895Z,4.56
2019-01-05T04:10:35.232Z,4.57
2019-01-05T04:14:01.761Z,4.61
2019-01-05T04:17:27.959Z,4.64
2019-01-05T04:20:54.118Z,4.65
2019-01-05T04:24:20.352Z,4.65
2019-01-05T04:27:46.811Z,4.68
2019-01-05T04:30:59.697Z,4.70
2019-01-05T04:34:25.894Z,4.71
2019-01-05T04:37:52.357Z,4.73
2019-01-05T04:41:18.811Z,4.77
2019-01-05T04:44:45.155Z,4.78
2019-01-05T04:47:59.264Z,4.81
2019-01-05T04:51:25.755Z,4.83
2019-01-05T05:01:42.593Z,4.86
2019-01-05T05:05:01.719Z,4.89
2019-01-05T05:08:28.168Z,4.90
2019-01-05T05:11:54.650Z,4.92
2019-01-05T05:15:21.101Z,4.95
2019-01-05T05:18:47.567Z,4.97
2019-01-05T05:22:14.020Z,5.00
2019-01-05T05:25:43.542Z,5.03
2019-01-05T05:29:09.712Z,5.02
2019-01-05T05:32:38.693Z,5.04
2019-01-05T05:36:04.908Z,5.11
2019-01-05T05:39:34.169Z,5.12
2019-01-05T05:43:00.396Z,5.11
2019-01-05T05:46:26.602Z,5.12
2019-01-05T05:49:53.035Z,5.14
2019-01-05T05:53:19.342Z,5.17
2019-01-05T05:56:34.062Z,5.22
2019-01-05T06:00:03.039Z,5.28
2019-01-05T06:03:23.014Z,5.29
2019-01-05T06:06:38.381Z,5.30
2019-01-05T06:10:04.588Z,5.34
2019-01-05T06:13:31.079Z,5.39
2019-01-05T06:16:52.975Z,5.41
2019-01-05T06:24:01.654Z,5.48
2019-01-05T06:27:28.135Z,5.52
2019-01-05T06:30:54.569Z,5.53
2019-01-05T06:34:19.100Z,5.57
2019-01-05T06:37:45.286Z,5.60
2019-01-05T06:41:11.720Z,5.60
2019-01-05T06:44:38.222Z,5.60
2019-01-05T06:48:04.696Z,5.60
2019-01-05T06:51:30.876Z,5.62
2019-01-05T06:54:57.046Z,5.64
2019-01-05T06:58:17.521Z,5.65
2019-01-05T07:01:43.723Z,5.68
2019-01-05T07:04:58.229Z,5.70
2019-01-05T07:08:24.789Z,5.71
2019-01-05T07:11:51.006Z,5.73
2019-01-05T07:15:17.189Z,5.76
2019-01-05T07:18:43.650Z,5.78
2019-01-05T07:22:10.088Z,5.80
2019-01-05T07:25:28.864Z,5.84
2019-01-05T07:28:55.325Z,5.88
2019-01-05T07:32:21.879Z,5.90
2019-01-05T07:35:48.068Z,5.92
2019-01-05T07:39:14.564Z,5.93
2019-01-05T07:42:41.015Z,5.95
2019-01-05T07:46:07.548Z,5.98
2019-01-05T07:49:28.865Z,5.99
2019-01-05T07:52:55.302Z,5.99
2019-01-05T07:56:21.766Z,6.00
2019-01-05T07:59:48.216Z,6.01
2019-01-05T08:03:14.405Z,6.00
2019-01-05T08:13:21.707Z,6.06
2019-01-05T08:16:46.379Z,6.05
2019-01-05T08:29:18.819Z,6.17
2019-01-05T08:32:45.026Z,6.17
2019-01-05T08:36:11.514Z,6.18
2019-01-05T08:39:37.952Z,6.17
2019-01-05T08:43:02.778Z,6.19
2019-01-05T08:46:32.004Z,6.18
2019-01-05T08:49:58.207Z,6.18
2019-01-05T08:53:19.061Z,6.19
2019-01-05T08:56:45.550Z,6.19
2019-01-05T09:00:12.014Z,6.18
2019-01-05T09:03:26.985Z,6.21
2019-01-05T09:06:53.416Z,6.22
2019-01-05T09:10:19.890Z,6.20
2019-01-05T09:13:46.081Z,6.20
2019-01-05T09:17:12.280Z,6.22
2019-01-05T09:20:37.528Z,6.24
2019-01-05T09:24:04.030Z,6.24
2019-01-05T09:27:30.470Z,6.24
2019-01-05T09:30:52.490Z,6.26
2019-01-05T09:34:11.764Z,6.27
2019-01-05T09:37:38.214Z,6.26
2019-01-05T09:41:07.750Z,6.28
2019-01-05T09:44:34.267Z,6.28
2019-01-05T09:48:00.730Z,6.28
2019-01-05T09:51:27.282Z,6.32
2019-01-05T09:54:51.618Z,6.32
2019-01-05T09:58:17.823Z,6.32
2019-01-05T10:01:44.339Z,6.31
2019-01-05T10:05:10.530Z,6.29
2019-01-05T10:08:36.694Z,6.32
2019-01-05T10:12:02.901Z,6.31
2019-01-05T10:15:29.410Z,6.30
2019-01-05T10:18:55.886Z,6.32
2019-01-05T10:22:22.165Z,6.33
2019-01-05T10:25:48.649Z,6.36
2019-01-05T10:29:14.822Z,6.35
2019-01-05T10:32:41.059Z,6.36
2019-01-05T10:36:04.867Z,6.39
2019-01-05T10:39:31.167Z,6.37
2019-01-05T10:42:57.396Z,6.38
2019-01-05T10:46:23.641Z,6.41
2019-01-05T10:49:49.835Z,6.45
2019-01-05T10:53:16.304Z,6.53
2019-01-05T10:56:42.509Z,6.48
2019-01-05T11:02:50.569Z,6.42
2019-01-05T11:47:41.966Z,6.37
2019-01-05T11:51:08.437Z,6.36
2019-01-05T11:54:29.500Z,6.34
2019-01-05T12:02:19.775Z,6.39
2019-01-05T12:16:33.404Z,6.42
2019-01-05T12:19:59.978Z,6.37
2019-01-05T12:23:26.476Z,6.36
2019-01-05T12:26:52.720Z,6.38
2019-01-05T12:30:20.938Z,6.38
2019-01-05T12:33:47.133Z,6.39
2019-01-05T12:37:16.116Z,6.36
2019-01-05T12:40:42.599Z,6.34
2019-01-05T12:44:03.787Z,6.34
2019-01-05T12:47:30.025Z,6.33
2019-01-05T12:50:56.181Z,6.37
2019-01-05T12:54:22.394Z,6.35
2019-01-05T13:09:00.720Z,6.32
2019-01-05T14:00:19.015Z,6.28
2019-01-05T14:03:07.461Z,6.26
2019-01-05T14:05:55.640Z,6.27
2019-01-05T14:22:20.932Z,6.28
2019-01-05T14:25:01.399Z,6.31
2019-01-05T14:27:49.580Z,6.32
2019-01-05T14:30:37.721Z,6.32
2019-01-05T14:33:25.844Z,6.33
2019-01-05T14:36:14.574Z,6.32
2019-01-05T14:39:02.704Z,6.29
2019-01-05T14:41:50.861Z,6.27
2019-01-05T14:44:39.270Z,6.26
2019-01-05T14:47:27.447Z,6.25
2019-01-05T14:50:15.584Z,6.23
2019-01-05T14:53:04.026Z,6.20
2019-01-05T15:05:58.386Z,6.13
2019-01-05T15:09:34.781Z,6.13
2019-01-05T15:12:52.196Z,6.10
2019-01-05T15:15:41.190Z,6.11
2019-01-05T15:24:52.715Z,6.07
2019-01-05T15:27:41.123Z,6.06
2019-01-05T15:30:29.617Z,6.06
2019-01-05T15:38:35.668Z,6.05
2019-01-05T15:41:24.135Z,6.03
2019-01-05T15:44:12.830Z,6.04
2019-01-05T15:47:01.014Z,6.03
2019-01-05T15:49:49.428Z,6.03
2019-01-05T15:52:37.844Z,6.03
2019-01-05T15:55:25.999Z,6.03
2019-01-05T15:58:14.461Z,6.00
2019-01-05T16:01:03.280Z,5.97
2019-01-05T16:03:45.347Z,5.94
2019-01-05T16:06:33.803Z,5.94
2019-01-05T16:09:22.312Z,5.92
2019-01-05T16:12:10.486Z,5.89
2019-01-05T16:15:01.747Z,5.90
2019-01-05T16:17:51.082Z,5.90
2019-01-05T16:20:41.969Z,5.89
2019-01-05T16:23:31.276Z,5.50
2019-01-05T16:26:19.463Z,5.86
2019-01-05T16:29:10.337Z,5.85
2019-01-05T16:32:01.339Z,5.83
2019-01-05T16:37:50.912Z,5.79
2019-01-05T16:40:39.582Z,5.77
2019-01-05T16:46:39.284Z,5.76
2019-01-05T16:52:20.885Z,5.74
2019-01-05T16:55:29.623Z,5.74
2019-01-05T16:58:23.610Z,5.73
2019-01-05T17:01:12.757Z,5.74
2019-01-05T17:09:53.763Z,5.77
2019-01-05T17:12:42.814Z,5.72
2019-01-05T17:15:31.256Z,5.73
2019-01-05T17:18:35.645Z,5.71
2019-01-05T17:21:26.592Z,5.71
2019-01-05T17:24:15.304Z,5.71
2019-01-05T17:27:04.573Z,5.69
2019-01-05T17:29:53.134Z,5.69
2019-01-05T17:32:43.681Z,5.66
2019-01-05T17:35:32.202Z,5.67
2019-01-05T17:38:21.001Z,5.65
2019-01-05T17:41:09.499Z,5.67
2019-01-05T17:43:57.952Z,5.66
2019-01-05T17:46:46.368Z,5.67
2019-01-05T17:52:37.619Z,5.66
2019-01-05T17:58:25.411Z,5.64
2019-01-05T18:01:43.040Z,5.65
2019-01-05T18:04:34.785Z,5.64
2019-01-05T18:07:25.669Z,5.64
2019-01-05T18:10:16.307Z,5.65
2019-01-05T18:13:05.230Z,5.66
2019-01-05T18:18:53.193Z,5.65
2019-01-05T18:21:41.427Z,5.65
2019-01-05T18:24:30.475Z,5.64
2019-01-05T18:27:19.740Z,5.65
2019-01-05T18:30:09.250Z,5.65
2019-01-05T18:32:57.905Z,5.66
2019-01-05T18:35:47.217Z,5.66
2019-01-05T18:38:35.486Z,5.65
2019-01-05T18:47:07.184Z,5.67
2019-01-05T18:49:57.503Z,5.67
2019-01-05T18:55:43.014Z,5.70
2019-01-05T18:58:32.340Z,5.69
2019-01-05T19:01:21.079Z,5.68
2019-01-05T19:04:09.495Z,5.67
2019-01-05T19:06:58.317Z,5.66
2019-01-05T19:09:46.511Z,5.65
2019-01-05T19:12:34.996Z,5.66
2019-01-05T19:15:23.492Z,5.66
2019-01-05T19:18:11.904Z,5.66
2019-01-05T19:21:00.441Z,5.68
2019-01-05T19:23:48.581Z,5.69
2019-01-05T19:26:37.051Z,5.66
2019-01-05T19:29:25.578Z,5.66
2019-01-05T19:32:13.743Z,5.64
2019-01-05T19:35:01.874Z,5.62
2019-01-05T19:37:50.680Z,5.60
2019-01-05T19:40:38.836Z,5.60
2019-01-05T19:43:27.102Z,5.58
2019-01-05T19:46:11.065Z,5.58
2019-01-05T19:48:59.232Z,5.56
2019-01-05T19:51:47.658Z,5.56
2019-01-05T19:54:36.155Z,5.55
2019-01-05T19:57:19.989Z,5.55
2019-01-05T20:00:08.498Z,5.53
2019-01-05T20:02:56.923Z,5.52
2019-01-05T20:05:45.413Z,5.53
2019-01-05T20:08:52.524Z,5.53
2019-01-05T20:11:40.723Z,5.53
2019-01-05T20:14:29.125Z,5.51
2019-01-05T20:17:09.631Z,5.51
2019-01-05T20:19:49.766Z,5.49
2019-01-05T20:22:38.561Z,5.52
2019-01-05T20:25:26.963Z,5.53
2019-01-05T20:28:15.124Z,5.51
2019-01-05T20:31:03.315Z,5.50
2019-01-05T20:33:51.812Z,5.51
2019-01-05T20:36:40.615Z,5.50
2019-01-05T20:39:30.530Z,5.50
2019-01-05T20:42:19.183Z,5.50
2019-01-05T20:45:07.905Z,5.49
2019-01-05T20:47:56.056Z,5.52
2019-01-05T20:50:44.519Z,5.51
2019-01-05T20:53:33.349Z,5.50
2019-01-05T20:56:21.561Z,5.51
2019-01-05T20:59:10.299Z,5.48
2019-01-05T21:01:58.426Z,5.48
2019-01-05T21:04:46.584Z,5.48
2019-01-05T21:07:35.014Z,5.48
2019-01-05T21:10:23.694Z,5.46
2019-01-05T21:13:12.118Z,5.47
2019-01-05T21:16:00.705Z,5.45
2019-01-05T21:18:48.881Z,5.44
2019-01-05T21:21:37.156Z,5.45
2019-01-05T21:24:25.577Z,5.47
2019-01-05T21:27:14.772Z,5.44
2019-01-05T21:30:03.981Z,5.46
2019-01-05T21:32:52.117Z,5.47
2019-01-05T21:35:40.303Z,5.44
2019-01-05T21:38:29.044Z,5.43
2019-01-05T21:41:17.518Z,5.42
2019-01-05T21:44:05.714Z,5.43
2019-01-05T21:46:54.472Z,5.43
2019-01-05T21:49:43.372Z,5.43
2019-01-05T21:52:31.818Z,5.44
2019-01-05T21:55:20.514Z,5.41
2019-01-05T21:58:08.925Z,5.41
2019-01-05T22:00:57.410Z,5.42
2019-01-05T22:03:45.616Z,5.42
2019-01-05T22:06:34.035Z,5.43
2019-01-05T22:09:22.192Z,5.41
2019-01-05T22:12:11.369Z,5.41
2019-01-05T22:14:53.160Z,5.43
2019-01-05T22:17:41.315Z,5.45
2019-01-05T22:20:29.751Z,5.45
2019-01-05T22:23:17.904Z,5.45
2019-01-05T22:26:06.071Z,5.46
2019-01-05T22:28:54.435Z,5.44
2019-01-05T22:32:01.966Z,5.43
2019-01-05T22:34:45.783Z,5.44
2019-01-05T22:37:33.925Z,5.45
2019-01-05T22:40:13.896Z,5.45
2019-01-05T22:43:02.328Z,5.47
2019-01-05T22:45:50.910Z,5.47
2019-01-05T22:48:39.323Z,5.49
2019-01-05T22:51:27.487Z,5.49
2019-01-05T22:54:15.714Z,5.51
2019-01-05T22:57:04.675Z,5.49
2019-01-05T23:00:12.205Z,5.22
2019-01-05T23:03:00.646Z,5.51
2019-01-05T23:05:49.099Z,5.51
2019-01-05T23:08:37.987Z,5.51
2019-01-05T23:11:26.142Z,5.52
2019-01-05T23:14:14.562Z,5.54
2019-01-05T23:17:02.986Z,5.55
2019-01-05T23:19:51.134Z,5.30
2019-01-05T23:22:58.648Z,5.54
2019-01-05T23:25:47.103Z,5.54
2019-01-05T23:28:35.271Z,5.53
2019-01-05T23:31:24.000Z,5.52
2019-01-05T23:34:12.822Z,5.52
2019-01-05T23:37:01.295Z,5.51
2019-01-05T23:39:49.711Z,5.48
2019-01-05T23:42:37.907Z,5.50
2019-01-05T23:45:26.174Z,5.50
2019-01-05T23:48:14.651Z,5.47
2019-01-05T23:51:03.096Z,5.48
2019-01-05T23:53:51.521Z,5.47
2019-01-05T23:56:39.924Z,5.48
2019-01-05T23:59:28.362Z,5.46
